sensor_id;sensor_type;location;lat;lon;timestamp;temperature;humidity
75471;HTU21D;64051;46.320;48.028;2023-03-30T00:00:39;11.99;66.53
75471;HTU21D;64051;46.320;48.028;2023-03-30T00:03:08;11.96;66.55
75471;HTU21D;64051;46.320;48.028;2023-03-30T00:05:34;11.93;66.61
75471;HTU21D;64051;46.320;48.028;2023-03-30T00:08:01;11.91;66.65
75471;HTU21D;64051;46.320;48.028;2023-03-30T00:10:27;11.87;66.72
75471;HTU21D;64051;46.320;48.028;2023-03-30T00:12:54;11.85;66.78
75471;HTU21D;64051;46.320;48.028;2023-03-30T00:15:22;11.84;66.72
75471;HTU21D;64051;46.320;48.028;2023-03-30T00:17:49;11.83;66.86
75471;HTU21D;64051;46.320;48.028;2023-03-30T00:20:20;11.82;66.88
75471;HTU21D;64051;46.320;48.028;2023-03-30T00:22:46;11.79;66.88
75471;HTU21D;64051;46.320;48.028;2023-03-30T00:25:14;11.78;66.84
75471;HTU21D;64051;46.320;48.028;2023-03-30T00:27:40;11.76;66.88
75471;HTU21D;64051;46.320;48.028;2023-03-30T00:30:10;11.73;66.95
75471;HTU21D;64051;46.320;48.028;2023-03-30T00:32:36;11.70;66.94
75471;HTU21D;64051;46.320;48.028;2023-03-30T00:35:02;11.69;66.99
75471;HTU21D;64051;46.320;48.028;2023-03-30T00:37:30;11.64;67.04
75471;HTU21D;64051;46.320;48.028;2023-03-30T00:39:57;11.61;67.02
75471;HTU21D;64051;46.320;48.028;2023-03-30T00:42:23;11.56;67.10
75471;HTU21D;64051;46.320;48.028;2023-03-30T00:47:37;11.51;67.13
75471;HTU21D;64051;46.320;48.028;2023-03-30T00:50:06;11.47;67.27
75471;HTU21D;64051;46.320;48.028;2023-03-30T00:52:32;11.44;67.39
75471;HTU21D;64051;46.320;48.028;2023-03-30T00:55:04;11.44;67.41
75471;HTU21D;64051;46.320;48.028;2023-03-30T00:57:37;11.43;67.23
75471;HTU21D;64051;46.320;48.028;2023-03-30T01:00:06;11.44;67.14
75471;HTU21D;64051;46.320;48.028;2023-03-30T01:02:38;11.42;67.19
75471;HTU21D;64051;46.320;48.028;2023-03-30T01:05:07;11.43;67.20
75471;HTU21D;64051;46.320;48.028;2023-03-30T01:07:34;11.41;67.26
75471;HTU21D;64051;46.320;48.028;2023-03-30T01:10:01;11.43;67.13
75471;HTU21D;64051;46.320;48.028;2023-03-30T01:12:27;11.41;67.22
75471;HTU21D;64051;46.320;48.028;2023-03-30T01:14:55;11.37;67.25
75471;HTU21D;64051;46.320;48.028;2023-03-30T01:17:25;11.31;67.15
75471;HTU21D;64051;46.320;48.028;2023-03-30T01:20:12;11.28;67.16
75471;HTU21D;64051;46.320;48.028;2023-03-30T01:30:53;11.07;67.62
75471;HTU21D;64051;46.320;48.028;2023-03-30T01:36:33;11.02;67.80
75471;HTU21D;64051;46.320;48.028;2023-03-30T01:39:18;11.00;68.03
75471;HTU21D;64051;46.320;48.028;2023-03-30T01:47:08;10.89;68.06
75471;HTU21D;64051;46.320;48.028;2023-03-30T01:49:55;10.85;69.43
75471;HTU21D;64051;46.320;48.028;2023-03-30T01:52:28;10.84;68.44
75471;HTU21D;64051;46.320;48.028;2023-03-30T01:55:23;10.81;70.04
75471;HTU21D;64051;46.320;48.028;2023-03-30T01:57:58;10.79;69.17
75471;HTU21D;64051;46.320;48.028;2023-03-30T02:00:27;10.74;68.79
75471;HTU21D;64051;46.320;48.028;2023-03-30T02:03:08;10.77;68.86
75471;HTU21D;64051;46.320;48.028;2023-03-30T02:05:36;10.74;68.63
75471;HTU21D;64051;46.320;48.028;2023-03-30T02:08:07;10.73;68.74
75471;HTU21D;64051;46.320;48.028;2023-03-30T02:10:36;10.71;69.33
75471;HTU21D;64051;46.320;48.028;2023-03-30T02:13:04;10.70;68.91
75471;HTU21D;64051;46.320;48.028;2023-03-30T02:15:38;10.69;69.13
75471;HTU21D;64051;46.320;48.028;2023-03-30T02:18:05;10.68;68.96
75471;HTU21D;64051;46.320;48.028;2023-03-30T02:20:31;10.66;68.77
75471;HTU21D;64051;46.320;48.028;2023-03-30T02:22:59;10.65;68.84
75471;HTU21D;64051;46.320;48.028;2023-03-30T02:25:26;10.65;69.11
75471;HTU21D;64051;46.320;48.028;2023-03-30T02:27:53;10.66;69.17
75471;HTU21D;64051;46.320;48.028;2023-03-30T02:30:19;10.66;69.04
75471;HTU21D;64051;46.320;48.028;2023-03-30T02:32:48;10.65;69.21
75471;HTU21D;64051;46.320;48.028;2023-03-30T02:41:17;10.60;68.94
75471;HTU21D;64051;46.320;48.028;2023-03-30T02:43:59;10.59;69.05
75471;HTU21D;64051;46.320;48.028;2023-03-30T02:54:49;10.52;69.08
75471;HTU21D;64051;46.320;48.028;2023-03-30T02:57:49;10.50;69.18
75471;HTU21D;64051;46.320;48.028;2023-03-30T03:03:52;10.49;68.88
75471;HTU21D;64051;46.320;48.028;2023-03-30T03:06:25;10.51;69.05
75471;HTU21D;64051;46.320;48.028;2023-03-30T03:08:54;10.57;69.20
75471;HTU21D;64051;46.320;48.028;2023-03-30T03:11:26;10.67;69.32
75471;HTU21D;64051;46.320;48.028;2023-03-30T03:13:52;10.78;69.37
75471;HTU21D;64051;46.320;48.028;2023-03-30T03:16:18;10.92;69.45
75471;HTU21D;64051;46.320;48.028;2023-03-30T03:19:03;11.09;69.50
75471;HTU21D;64051;46.320;48.028;2023-03-30T03:21:29;11.26;69.45
75471;HTU21D;64051;46.320;48.028;2023-03-30T03:23:55;11.43;69.26
75471;HTU21D;64051;46.320;48.028;2023-03-30T03:26:24;11.58;69.05
75471;HTU21D;64051;46.320;48.028;2023-03-30T03:28:53;11.69;68.79
75471;HTU21D;64051;46.320;48.028;2023-03-30T03:31:19;11.78;68.58
75471;HTU21D;64051;46.320;48.028;2023-03-30T03:33:45;11.83;68.43
75471;HTU21D;64051;46.320;48.028;2023-03-30T03:36:20;11.91;68.33
75471;HTU21D;64051;46.320;48.028;2023-03-30T03:38:50;12.02;68.29
75471;HTU21D;64051;46.320;48.028;2023-03-30T03:41:17;12.11;68.23
75471;HTU21D;64051;46.320;48.028;2023-03-30T03:43:43;12.20;68.12
75471;HTU21D;64051;46.320;48.028;2023-03-30T03:46:09;12.26;68.02
75471;HTU21D;64051;46.320;48.028;2023-03-30T03:48:36;12.31;67.89
75471;HTU21D;64051;46.320;48.028;2023-03-30T03:51:02;12.32;67.81
75471;HTU21D;64051;46.320;48.028;2023-03-30T03:53:32;12.33;67.78
75471;HTU21D;64051;46.320;48.028;2023-03-30T03:56:01;12.35;67.76
75471;HTU21D;64051;46.320;48.028;2023-03-30T03:58:28;12.37;67.78
75471;HTU21D;64051;46.320;48.028;2023-03-30T04:00:59;12.40;67.80
75471;HTU21D;64051;46.320;48.028;2023-03-30T04:03:28;12.43;67.79
75471;HTU21D;64051;46.320;48.028;2023-03-30T04:05:58;12.46;67.78
75471;HTU21D;64051;46.320;48.028;2023-03-30T04:08:25;12.49;67.71
75471;HTU21D;64051;46.320;48.028;2023-03-30T04:10:51;12.51;67.68
75471;HTU21D;64051;46.320;48.028;2023-03-30T04:13:26;12.56;67.75
75471;HTU21D;64051;46.320;48.028;2023-03-30T04:16:18;12.62;67.80
75471;HTU21D;64051;46.320;48.028;2023-03-30T04:19:06;12.73;67.81
75471;HTU21D;64051;46.320;48.028;2023-03-30T04:21:59;12.84;67.63
75471;HTU21D;64051;46.320;48.028;2023-03-30T04:24:53;12.93;67.54
75471;HTU21D;64051;46.320;48.028;2023-03-30T04:27:43;13.08;67.54
75471;HTU21D;64051;46.320;48.028;2023-03-30T04:30:37;13.22;67.49
75471;HTU21D;64051;46.320;48.028;2023-03-30T04:33:24;13.36;67.51
75471;HTU21D;64051;46.320;48.028;2023-03-30T04:36:17;13.60;67.55
75471;HTU21D;64051;46.320;48.028;2023-03-30T04:39:03;13.81;67.49
75471;HTU21D;64051;46.320;48.028;2023-03-30T04:41:49;14.01;67.42
75471;HTU21D;64051;46.320;48.028;2023-03-30T04:44:34;14.17;67.17
75471;HTU21D;64051;46.320;48.028;2023-03-30T04:47:30;14.35;67.10
75471;HTU21D;64051;46.320;48.028;2023-03-30T04:50:16;14.54;67.07
75471;HTU21D;64051;46.320;48.028;2023-03-30T04:53:01;14.71;66.88
75471;HTU21D;64051;46.320;48.028;2023-03-30T04:55:49;14.84;66.69
75471;HTU21D;64051;46.320;48.028;2023-03-30T04:58:44;14.93;66.53
75471;HTU21D;64051;46.320;48.028;2023-03-30T05:01:37;14.98;66.40
75471;HTU21D;64051;46.320;48.028;2023-03-30T05:04:17;14.98;66.18
75471;HTU21D;64051;46.320;48.028;2023-03-30T05:07:06;14.95;66.04
75471;HTU21D;64051;46.320;48.028;2023-03-30T05:09:44;14.93;65.92
75471;HTU21D;64051;46.320;48.028;2023-03-30T05:12:10;14.86;65.85
75471;HTU21D;64051;46.320;48.028;2023-03-30T05:14:51;14.81;65.85
75471;HTU21D;64051;46.320;48.028;2023-03-30T05:17:42;14.75;65.85
75471;HTU21D;64051;46.320;48.028;2023-03-30T05:20:43;14.70;65.83
75471;HTU21D;64051;46.320;48.028;2023-03-30T05:23:27;14.62;65.77
75471;HTU21D;64051;46.320;48.028;2023-03-30T05:26:07;14.57;65.91
75471;HTU21D;64051;46.320;48.028;2023-03-30T05:28:59;14.52;65.91
75471;HTU21D;64051;46.320;48.028;2023-03-30T05:31:54;14.48;65.94
75471;HTU21D;64051;46.320;48.028;2023-03-30T05:34:25;14.48;65.91
75471;HTU21D;64051;46.320;48.028;2023-03-30T05:36:57;14.45;65.96
75471;HTU21D;64051;46.320;48.028;2023-03-30T05:39:31;14.54;66.23
75471;HTU21D;64051;46.320;48.028;2023-03-30T05:42:19;14.65;66.20
75471;HTU21D;64051;46.320;48.028;2023-03-30T05:45:06;14.74;66.14
75471;HTU21D;64051;46.320;48.028;2023-03-30T05:47:35;14.79;66.02
75471;HTU21D;64051;46.320;48.028;2023-03-30T05:50:11;14.82;65.97
75471;HTU21D;64051;46.320;48.028;2023-03-30T05:52:51;14.82;65.91
75471;HTU21D;64051;46.320;48.028;2023-03-30T05:55:28;14.81;65.84
75471;HTU21D;64051;46.320;48.028;2023-03-30T05:58:15;14.74;66.05
75471;HTU21D;64051;46.320;48.028;2023-03-30T06:01:13;14.72;66.24
75471;HTU21D;64051;46.320;48.028;2023-03-30T06:03:42;14.69;66.27
75471;HTU21D;64051;46.320;48.028;2023-03-30T06:06:12;14.65;66.41
75471;HTU21D;64051;46.320;48.028;2023-03-30T06:08:42;14.57;66.75
75471;HTU21D;64051;46.320;48.028;2023-03-30T06:11:14;14.40;67.30
75471;HTU21D;64051;46.320;48.028;2023-03-30T06:13:49;14.18;66.58
75471;HTU21D;64051;46.320;48.028;2023-03-30T06:16:18;13.75;66.88
75471;HTU21D;64051;46.320;48.028;2023-03-30T06:18:44;13.32;66.96
75471;HTU21D;64051;46.320;48.028;2023-03-30T06:21:14;12.93;67.43
75471;HTU21D;64051;46.320;48.028;2023-03-30T06:24:15;12.45;68.13
75471;HTU21D;64051;46.320;48.028;2023-03-30T06:26:41;12.15;68.10
75471;HTU21D;64051;46.320;48.028;2023-03-30T06:29:07;11.86;68.70
75471;HTU21D;64051;46.320;48.028;2023-03-30T06:31:38;11.68;68.45
75471;HTU21D;64051;46.320;48.028;2023-03-30T06:34:31;11.42;68.83
75471;HTU21D;64051;46.320;48.028;2023-03-30T06:36:57;11.30;69.07
75471;HTU21D;64051;46.320;48.028;2023-03-30T06:39:23;11.11;69.42
75471;HTU21D;64051;46.320;48.028;2023-03-30T06:41:50;11.00;69.79
75471;HTU21D;64051;46.320;48.028;2023-03-30T06:44:32;10.93;69.51
75471;HTU21D;64051;46.320;48.028;2023-03-30T06:47:02;10.83;69.78
75471;HTU21D;64051;46.320;48.028;2023-03-30T06:49:30;10.79;70.10
75471;HTU21D;64051;46.320;48.028;2023-03-30T06:52:18;10.74;70.25
75471;HTU21D;64051;46.320;48.028;2023-03-30T06:54:45;10.71;69.78
75471;HTU21D;64051;46.320;48.028;2023-03-30T06:57:11;10.65;70.00
75471;HTU21D;64051;46.320;48.028;2023-03-30T06:59:40;10.55;70.51
75471;HTU21D;64051;46.320;48.028;2023-03-30T07:02:18;10.55;70.55
75471;HTU21D;64051;46.320;48.028;2023-03-30T07:04:47;10.57;70.71
75471;HTU21D;64051;46.320;48.028;2023-03-30T07:07:31;10.58;70.94
75471;HTU21D;64051;46.320;48.028;2023-03-30T07:09:57;10.66;70.52
75471;HTU21D;64051;46.320;48.028;2023-03-30T07:12:32;10.79;70.72
75471;HTU21D;64051;46.320;48.028;2023-03-30T07:15:01;10.99;70.48
75471;HTU21D;64051;46.320;48.028;2023-03-30T07:17:27;11.19;70.47
75471;HTU21D;64051;46.320;48.028;2023-03-30T07:19:53;11.41;70.13
75471;HTU21D;64051;46.320;48.028;2023-03-30T07:22:19;11.63;69.65
75471;HTU21D;64051;46.320;48.028;2023-03-30T07:24:45;11.73;69.01
75471;HTU21D;64051;46.320;48.028;2023-03-30T07:27:14;11.78;68.54
75471;HTU21D;64051;46.320;48.028;2023-03-30T07:29:44;11.79;67.51
75471;HTU21D;64051;46.320;48.028;2023-03-30T07:32:10;11.87;68.30
75471;HTU21D;64051;46.320;48.028;2023-03-30T07:34:36;11.91;67.93
75471;HTU21D;64051;46.320;48.028;2023-03-30T07:37:02;11.93;67.43
75471;HTU21D;64051;46.320;48.028;2023-03-30T07:39:31;11.91;67.33
75471;HTU21D;64051;46.320;48.028;2023-03-30T07:41:57;11.92;67.34
75471;HTU21D;64051;46.320;48.028;2023-03-30T07:44:23;12.00;67.17
75471;HTU21D;64051;46.320;48.028;2023-03-30T07:46:52;12.03;66.75
75471;HTU21D;64051;46.320;48.028;2023-03-30T07:49:23;11.99;65.75
75471;HTU21D;64051;46.320;48.028;2023-03-30T07:51:53;11.91;66.36
75471;HTU21D;64051;46.320;48.028;2023-03-30T07:54:41;11.89;66.40
75471;HTU21D;64051;46.320;48.028;2023-03-30T07:57:21;11.91;66.21
75471;HTU21D;64051;46.320;48.028;2023-03-30T07:59:48;11.91;66.47
75471;HTU21D;64051;46.320;48.028;2023-03-30T08:02:33;12.10;66.34
75471;HTU21D;64051;46.320;48.028;2023-03-30T08:05:00;12.16;65.99
75471;HTU21D;64051;46.320;48.028;2023-03-30T08:07:34;12.33;65.88
75471;HTU21D;64051;46.320;48.028;2023-03-30T08:10:12;12.51;65.46
75471;HTU21D;64051;46.320;48.028;2023-03-30T08:12:47;12.67;65.05
75471;HTU21D;64051;46.320;48.028;2023-03-30T08:15:16;12.79;63.82
75471;HTU21D;64051;46.320;48.028;2023-03-30T08:17:45;12.81;63.84
75471;HTU21D;64051;46.320;48.028;2023-03-30T08:20:23;12.78;63.30
75471;HTU21D;64051;46.320;48.028;2023-03-30T08:22:49;12.73;63.11
75471;HTU21D;64051;46.320;48.028;2023-03-30T08:25:15;12.78;63.15
75471;HTU21D;64051;46.320;48.028;2023-03-30T08:27:41;12.92;63.07
75471;HTU21D;64051;46.320;48.028;2023-03-30T08:30:10;13.09;62.34
75471;HTU21D;64051;46.320;48.028;2023-03-30T08:32:37;13.12;61.75
75471;HTU21D;64051;46.320;48.028;2023-03-30T08:35:06;13.14;61.50
75471;HTU21D;64051;46.320;48.028;2023-03-30T08:37:40;13.15;61.04
75471;HTU21D;64051;46.320;48.028;2023-03-30T08:40:08;13.23;61.75
75471;HTU21D;64051;46.320;48.028;2023-03-30T08:45:13;13.34;60.73
75471;HTU21D;64051;46.320;48.028;2023-03-30T08:47:42;13.37;60.70
75471;HTU21D;64051;46.320;48.028;2023-03-30T08:52:51;13.37;60.47
75471;HTU21D;64051;46.320;48.028;2023-03-30T08:55:22;13.47;59.99
75471;HTU21D;64051;46.320;48.028;2023-03-30T08:58:47;13.49;58.38
75471;HTU21D;64051;46.320;48.028;2023-03-30T09:01:18;13.49;58.22
75471;HTU21D;64051;46.320;48.028;2023-03-30T09:06:29;13.59;57.88
75471;HTU21D;64051;46.320;48.028;2023-03-30T09:08:59;13.56;58.51
75471;HTU21D;64051;46.320;48.028;2023-03-30T09:11:33;13.54;57.58
75471;HTU21D;64051;46.320;48.028;2023-03-30T09:14:15;13.59;57.72
75471;HTU21D;64051;46.320;48.028;2023-03-30T09:16:57;13.70;57.64
75471;HTU21D;64051;46.320;48.028;2023-03-30T09:19:47;13.78;57.51
75471;HTU21D;64051;46.320;48.028;2023-03-30T09:22:18;13.78;57.34
75471;HTU21D;64051;46.320;48.028;2023-03-30T09:25:17;13.68;55.87
75471;HTU21D;64051;46.320;48.028;2023-03-30T09:30:40;13.53;57.22
75471;HTU21D;64051;46.320;48.028;2023-03-30T09:33:45;13.43;56.57
75471;HTU21D;64051;46.320;48.028;2023-03-30T09:38:57;13.30;56.99
75471;HTU21D;64051;46.320;48.028;2023-03-30T09:44:01;13.45;56.23
75471;HTU21D;64051;46.320;48.028;2023-03-30T09:46:27;13.36;55.48
75471;HTU21D;64051;46.320;48.028;2023-03-30T09:49:11;13.20;55.34
75471;HTU21D;64051;46.320;48.028;2023-03-30T09:52:17;12.90;54.91
75471;HTU21D;64051;46.320;48.028;2023-03-30T09:54:44;12.61;55.75
75471;HTU21D;64051;46.320;48.028;2023-03-30T09:57:33;12.36;56.39
75471;HTU21D;64051;46.320;48.028;2023-03-30T10:00:27;12.26;56.83
75471;HTU21D;64051;46.320;48.028;2023-03-30T10:03:05;12.20;57.19
75471;HTU21D;64051;46.320;48.028;2023-03-30T10:05:34;12.19;57.31
75471;HTU21D;64051;46.320;48.028;2023-03-30T10:08:16;12.20;57.49
75471;HTU21D;64051;46.320;48.028;2023-03-30T10:10:44;12.30;57.71
75471;HTU21D;64051;46.320;48.028;2023-03-30T10:13:15;12.43;57.22
75471;HTU21D;64051;46.320;48.028;2023-03-30T10:15:44;12.48;57.32
75471;HTU21D;64051;46.320;48.028;2023-03-30T10:21:01;12.53;56.90
75471;HTU21D;64051;46.320;48.028;2023-03-30T10:23:32;12.55;56.74
75471;HTU21D;64051;46.320;48.028;2023-03-30T10:26:03;12.64;57.01
75471;HTU21D;64051;46.320;48.028;2023-03-30T10:28:33;12.63;57.13
75471;HTU21D;64051;46.320;48.028;2023-03-30T10:31:06;12.55;56.97
75471;HTU21D;64051;46.320;48.028;2023-03-30T10:33:39;12.46;57.00
75471;HTU21D;64051;46.320;48.028;2023-03-30T10:36:09;12.41;57.13
75471;HTU21D;64051;46.320;48.028;2023-03-30T10:38:42;12.38;57.14
75471;HTU21D;64051;46.320;48.028;2023-03-30T10:41:14;12.31;56.77
75471;HTU21D;64051;46.320;48.028;2023-03-30T10:43:46;12.19;56.84
75471;HTU21D;64051;46.320;48.028;2023-03-30T10:46:28;12.04;57.01
75471;HTU21D;64051;46.320;48.028;2023-03-30T10:55:13;11.96;57.34
75471;HTU21D;64051;46.320;48.028;2023-03-30T10:57:46;11.83;57.55
75471;HTU21D;64051;46.320;48.028;2023-03-30T11:00:30;11.84;57.59
75471;HTU21D;64051;46.320;48.028;2023-03-30T11:03:20;11.92;57.48
75471;HTU21D;64051;46.320;48.028;2023-03-30T11:05:51;11.99;57.64
75471;HTU21D;64051;46.320;48.028;2023-03-30T11:08:35;12.08;57.22
75471;HTU21D;64051;46.320;48.028;2023-03-30T11:11:06;12.06;57.26
75471;HTU21D;64051;46.320;48.028;2023-03-30T11:13:44;12.01;56.73
75471;HTU21D;64051;46.320;48.028;2023-03-30T11:16:19;11.93;57.03
75471;HTU21D;64051;46.320;48.028;2023-03-30T11:19:02;11.97;56.87
75471;HTU21D;64051;46.320;48.028;2023-03-30T11:21:45;11.94;57.01
75471;HTU21D;64051;46.320;48.028;2023-03-30T11:24:20;11.96;56.61
75471;HTU21D;64051;46.320;48.028;2023-03-30T11:40:37;11.85;55.81
75471;HTU21D;64051;46.320;48.028;2023-03-30T11:43:10;11.82;56.33
75471;HTU21D;64051;46.320;48.028;2023-03-30T12:02:46;11.89;55.59
75471;HTU21D;64051;46.320;48.028;2023-03-30T12:05:28;11.84;54.57
75471;HTU21D;64051;46.320;48.028;2023-03-30T12:11:11;11.79;54.91
75471;HTU21D;64051;46.320;48.028;2023-03-30T12:13:38;11.75;55.23
75471;HTU21D;64051;46.320;48.028;2023-03-30T12:16:12;11.71;54.87
75471;HTU21D;64051;46.320;48.028;2023-03-30T12:21:26;11.71;55.18
75471;HTU21D;64051;46.320;48.028;2023-03-30T12:26:45;11.69;54.84
75471;HTU21D;64051;46.320;48.028;2023-03-30T12:29:16;11.64;54.64
75471;HTU21D;64051;46.320;48.028;2023-03-30T12:34:47;11.54;53.56
75471;HTU21D;64051;46.320;48.028;2023-03-30T12:39:58;11.29;53.97
75471;HTU21D;64051;46.320;48.028;2023-03-30T12:42:25;11.19;54.02
75471;HTU21D;64051;46.320;48.028;2023-03-30T12:48:03;11.09;54.35
75471;HTU21D;64051;46.320;48.028;2023-03-30T12:53:47;11.08;53.39
75471;HTU21D;64051;46.320;48.028;2023-03-30T13:02:43;11.15;53.98
75471;HTU21D;64051;46.320;48.028;2023-03-30T13:05:39;11.16;53.87
75471;HTU21D;64051;46.320;48.028;2023-03-30T13:11:13;11.12;54.30
75471;HTU21D;64051;46.320;48.028;2023-03-30T13:13:58;11.14;54.19
75471;HTU21D;64051;46.320;48.028;2023-03-30T13:27:24;10.69;53.75
75471;HTU21D;64051;46.320;48.028;2023-03-30T13:30:00;10.58;53.98
75471;HTU21D;64051;46.320;48.028;2023-03-30T13:38:21;10.24;54.62
75471;HTU21D;64051;46.320;48.028;2023-03-30T13:43:28;10.10;55.00
75471;HTU21D;64051;46.320;48.028;2023-03-30T13:46:07;10.01;55.05
75471;HTU21D;64051;46.320;48.028;2023-03-30T13:49:07;9.91;55.65
75471;HTU21D;64051;46.320;48.028;2023-03-30T13:51:47;9.85;55.39
75471;HTU21D;64051;46.320;48.028;2023-03-30T13:54:24;9.77;55.61
75471;HTU21D;64051;46.320;48.028;2023-03-30T13:57:03;9.69;55.94
75471;HTU21D;64051;46.320;48.028;2023-03-30T13:59:31;9.64;55.73
75471;HTU21D;64051;46.320;48.028;2023-03-30T14:01:59;9.60;55.84
75471;HTU21D;64051;46.320;48.028;2023-03-30T14:04:35;9.54;55.97
75471;HTU21D;64051;46.320;48.028;2023-03-30T14:07:14;9.54;55.93
75471;HTU21D;64051;46.320;48.028;2023-03-30T14:10:04;9.50;55.84
75471;HTU21D;64051;46.320;48.028;2023-03-30T14:12:50;9.45;55.98
75471;HTU21D;64051;46.320;48.028;2023-03-30T14:15:32;9.37;56.04
75471;HTU21D;64051;46.320;48.028;2023-03-30T14:18:02;9.34;56.09
75471;HTU21D;64051;46.320;48.028;2023-03-30T14:20:45;9.26;56.25
75471;HTU21D;64051;46.320;48.028;2023-03-30T14:23:39;9.19;56.61
75471;HTU21D;64051;46.320;48.028;2023-03-30T14:26:27;9.15;56.39
75471;HTU21D;64051;46.320;48.028;2023-03-30T14:29:01;9.07;56.58
75471;HTU21D;64051;46.320;48.028;2023-03-30T14:31:40;9.05;56.65
75471;HTU21D;64051;46.320;48.028;2023-03-30T14:34:30;9.01;56.77
75471;HTU21D;64051;46.320;48.028;2023-03-30T14:37:05;9.00;56.65
75471;HTU21D;64051;46.320;48.028;2023-03-30T14:39:58;8.95;56.77
75471;HTU21D;64051;46.320;48.028;2023-03-30T14:42:26;8.93;56.82
75471;HTU21D;64051;46.320;48.028;2023-03-30T14:44:56;8.91;56.87
75471;HTU21D;64051;46.320;48.028;2023-03-30T14:47:26;8.83;57.06
75471;HTU21D;64051;46.320;48.028;2023-03-30T14:50:01;8.81;56.78
75471;HTU21D;64051;46.320;48.028;2023-03-30T14:52:39;8.71;56.73
75471;HTU21D;64051;46.320;48.028;2023-03-30T14:55:22;8.63;56.87
75471;HTU21D;64051;46.320;48.028;2023-03-30T14:57:55;8.57;57.03
75471;HTU21D;64051;46.320;48.028;2023-03-30T15:00:27;8.53;56.98
75471;HTU21D;64051;46.320;48.028;2023-03-30T15:03:01;8.49;57.09
75471;HTU21D;64051;46.320;48.028;2023-03-30T15:05:50;8.41;57.22
75471;HTU21D;64051;46.320;48.028;2023-03-30T15:08:30;8.37;57.10
75471;HTU21D;64051;46.320;48.028;2023-03-30T15:11:04;8.31;57.31
75471;HTU21D;64051;46.320;48.028;2023-03-30T15:13:41;8.28;57.13
75471;HTU21D;64051;46.320;48.028;2023-03-30T15:16:25;8.21;57.27
75471;HTU21D;64051;46.320;48.028;2023-03-30T15:21:55;8.11;57.51
75471;HTU21D;64051;46.320;48.028;2023-03-30T15:24:30;8.07;57.45
75471;HTU21D;64051;46.320;48.028;2023-03-30T15:27:04;8.01;57.54
75471;HTU21D;64051;46.320;48.028;2023-03-30T15:29:49;7.93;57.66
75471;HTU21D;64051;46.320;48.028;2023-03-30T15:32:20;7.90;57.64
75471;HTU21D;64051;46.320;48.028;2023-03-30T15:35:21;7.85;57.66
75471;HTU21D;64051;46.320;48.028;2023-03-30T15:37:57;7.81;57.67
75471;HTU21D;64051;46.320;48.028;2023-03-30T15:40:33;7.74;57.76
75471;HTU21D;64051;46.320;48.028;2023-03-30T15:51:03;7.52;58.28
75471;HTU21D;64051;46.320;48.028;2023-03-30T15:53:38;7.50;58.06
75471;HTU21D;64051;46.320;48.028;2023-03-30T15:58:57;7.45;58.07
75471;HTU21D;64051;46.320;48.028;2023-03-30T16:01:48;7.44;58.06
75471;HTU21D;64051;46.320;48.028;2023-03-30T16:04:20;7.39;58.25
75471;HTU21D;64051;46.320;48.028;2023-03-30T16:07:13;7.34;58.45
75471;HTU21D;64051;46.320;48.028;2023-03-30T16:09:45;7.30;58.36
75471;HTU21D;64051;46.320;48.028;2023-03-30T16:12:20;7.28;58.73
75471;HTU21D;64051;46.320;48.028;2023-03-30T16:14:58;7.24;58.34
75471;HTU21D;64051;46.320;48.028;2023-03-30T16:17:24;7.22;58.47
75471;HTU21D;64051;46.320;48.028;2023-03-30T16:19:53;7.22;58.50
75471;HTU21D;64051;46.320;48.028;2023-03-30T16:22:22;7.20;58.37
75471;HTU21D;64051;46.320;48.028;2023-03-30T16:24:54;7.20;58.38
75471;HTU21D;64051;46.320;48.028;2023-03-30T16:27:29;7.22;58.33
75471;HTU21D;64051;46.320;48.028;2023-03-30T16:30:13;7.20;58.45
75471;HTU21D;64051;46.320;48.028;2023-03-30T16:32:50;7.18;58.50
75471;HTU21D;64051;46.320;48.028;2023-03-30T16:35:31;7.16;58.93
75471;HTU21D;64051;46.320;48.028;2023-03-30T16:38:03;7.16;58.78
75471;HTU21D;64051;46.320;48.028;2023-03-30T16:40:30;7.15;58.83
75471;HTU21D;64051;46.320;48.028;2023-03-30T16:43:03;7.16;58.65
75471;HTU21D;64051;46.320;48.028;2023-03-30T16:45:45;7.14;58.92
75471;HTU21D;64051;46.320;48.028;2023-03-30T16:48:12;7.13;58.70
75471;HTU21D;64051;46.320;48.028;2023-03-30T16:50:52;7.12;58.58
75471;HTU21D;64051;46.320;48.028;2023-03-30T16:53:18;7.11;58.30
75471;HTU21D;64051;46.320;48.028;2023-03-30T16:55:53;7.07;58.46
75471;HTU21D;64051;46.320;48.028;2023-03-30T16:58:28;7.05;58.29
75471;HTU21D;64051;46.320;48.028;2023-03-30T17:00:59;7.04;58.24
75471;HTU21D;64051;46.320;48.028;2023-03-30T17:03:29;7.07;58.13
75471;HTU21D;64051;46.320;48.028;2023-03-30T17:06:01;7.09;58.00
75471;HTU21D;64051;46.320;48.028;2023-03-30T17:08:32;7.03;57.86
75471;HTU21D;64051;46.320;48.028;2023-03-30T17:11:00;7.05;57.73
75471;HTU21D;64051;46.320;48.028;2023-03-30T17:13:31;7.03;57.62
75471;HTU21D;64051;46.320;48.028;2023-03-30T17:16:00;7.05;57.64
75471;HTU21D;64051;46.320;48.028;2023-03-30T17:18:28;7.04;57.54
75471;HTU21D;64051;46.320;48.028;2023-03-30T17:21:06;7.05;57.57
75471;HTU21D;64051;46.320;48.028;2023-03-30T17:23:47;7.08;57.51
75471;HTU21D;64051;46.320;48.028;2023-03-30T17:26:15;7.07;57.22
75471;HTU21D;64051;46.320;48.028;2023-03-30T17:28:43;7.07;56.97
75471;HTU21D;64051;46.320;48.028;2023-03-30T17:31:20;7.01;56.93
75471;HTU21D;64051;46.320;48.028;2023-03-30T17:33:48;6.97;56.30
75471;HTU21D;64051;46.320;48.028;2023-03-30T17:36:23;6.96;56.42
75471;HTU21D;64051;46.320;48.028;2023-03-30T17:38:53;6.94;56.18
75471;HTU21D;64051;46.320;48.028;2023-03-30T17:41:30;6.91;56.06
75471;HTU21D;64051;46.320;48.028;2023-03-30T17:44:02;6.89;55.74
75471;HTU21D;64051;46.320;48.028;2023-03-30T17:46:36;6.84;54.80
75471;HTU21D;64051;46.320;48.028;2023-03-30T17:49:02;6.84;55.50
75471;HTU21D;64051;46.320;48.028;2023-03-30T17:51:32;6.81;55.13
75471;HTU21D;64051;46.320;48.028;2023-03-30T17:54:11;6.79;54.56
75471;HTU21D;64051;46.320;48.028;2023-03-30T17:56:43;6.76;54.79
75471;HTU21D;64051;46.320;48.028;2023-03-30T17:59:12;6.73;54.55
75471;HTU21D;64051;46.320;48.028;2023-03-30T18:01:56;6.65;54.47
75471;HTU21D;64051;46.320;48.028;2023-03-30T18:04:22;6.63;54.46
75471;HTU21D;64051;46.320;48.028;2023-03-30T18:06:57;6.60;54.65
75471;HTU21D;64051;46.320;48.028;2023-03-30T18:09:44;6.59;54.65
75471;HTU21D;64051;46.320;48.028;2023-03-30T18:12:20;6.54;54.32
75471;HTU21D;64051;46.320;48.028;2023-03-30T18:14:58;6.53;54.56
75471;HTU21D;64051;46.320;48.028;2023-03-30T18:17:24;6.49;54.64
75471;HTU21D;64051;46.320;48.028;2023-03-30T18:20:19;6.44;53.72
75471;HTU21D;64051;46.320;48.028;2023-03-30T18:22:57;6.40;54.32
75471;HTU21D;64051;46.320;48.028;2023-03-30T18:25:27;6.38;54.36
75471;HTU21D;64051;46.320;48.028;2023-03-30T18:27:53;6.37;54.11